Terminal Aerodrome Forecast
Issued by NWS Raleigh/Durham, NC

Home | Current Version | Previous Version | Text Only | Print | Product List | Glossary On
Versions: 1 2 3 4 5 6 7 8 9 10 11 12 13 14 15 16 17 18 19 20 21 22 23 24 25 26 27 28 29 30
000
FTUS42 KRAH 162333
TAFRDU
TAF
KRDU 162333Z 1700/1724 VRB05KT P6SM BKN200
      TEMPO 1709/1713 6SM -SN OVC025
     FM171300 34005G16KT 3SM -SN OVC020
      TEMPO 1713/1716 1 1/2SM -SN OVC015
     FM172300 36008G18KT P6SM BKN030=

USA.gov is the U.S. government's official web portal to all federal, state and local government web resources and services.